createdAt,value
2023-05-18T00:02:17.115Z,3.87
2023-05-18T00:05:05.323Z,3.53
2023-05-18T00:07:53.216Z,3.80
2023-05-18T00:10:40.989Z,3.80
2023-05-18T00:13:28.295Z,4.13
2023-05-18T00:16:17.836Z,4.40
2023-05-18T00:19:05.401Z,4.20
2023-05-18T00:21:53.593Z,3.63
2023-05-18T00:24:40.876Z,4.30
2023-05-18T00:27:28.990Z,4.33
2023-05-18T00:30:16.358Z,4.00
2023-05-18T00:33:05.888Z,3.90
2023-05-18T00:35:53.525Z,4.40
2023-05-18T00:38:41.219Z,4.70
2023-05-18T00:41:30.198Z,4.37
2023-05-18T00:44:17.598Z,4.47
2023-05-18T00:47:05.882Z,6.23
2023-05-18T00:49:54.539Z,4.37
2023-05-18T00:52:43.989Z,5.17
2023-05-18T00:55:31.596Z,4.67
2023-05-18T00:58:20.019Z,5.27
2023-05-18T01:01:09.509Z,4.97
2023-05-18T01:04:02.695Z,4.83
2023-05-18T01:06:56.503Z,4.10
2023-05-18T01:09:44.775Z,4.80
2023-05-18T01:12:40.906Z,5.20
2023-05-18T01:15:33.425Z,4.40
2023-05-18T01:18:29.047Z,4.90
2023-05-18T01:21:26.010Z,4.80
2023-05-18T01:24:25.994Z,4.63
2023-05-18T01:27:18.107Z,4.37
2023-05-18T01:30:08.202Z,4.97
2023-05-18T01:32:56.131Z,4.57
2023-05-18T01:35:48.904Z,4.83
2023-05-18T01:38:37.550Z,5.63
2023-05-18T01:41:26.647Z,4.50
2023-05-18T01:44:21.293Z,4.83
2023-05-18T01:47:12.608Z,4.53
2023-05-18T01:50:03.942Z,4.63
2023-05-18T01:52:58.565Z,5.40
2023-05-18T01:55:46.836Z,4.33
2023-05-18T01:58:37.350Z,5.17
2023-05-18T02:01:26.720Z,4.43
2023-05-18T02:04:13.940Z,5.07
2023-05-18T02:07:02.075Z,4.63
2023-05-18T02:09:51.007Z,5.07
2023-05-18T02:12:38.133Z,4.97
2023-05-18T02:15:26.109Z,4.50
2023-05-18T02:18:15.109Z,5.43
2023-05-18T02:21:03.317Z,4.93
2023-05-18T02:23:52.567Z,5.13
2023-05-18T02:26:39.934Z,5.20
2023-05-18T02:29:28.150Z,4.43
2023-05-18T02:32:16.819Z,5.23
2023-05-18T02:35:08.981Z,5.03
2023-05-18T02:37:58.238Z,4.43
2023-05-18T02:40:46.834Z,4.73
2023-05-18T02:43:36.222Z,5.60
2023-05-18T02:46:24.383Z,4.50
2023-05-18T02:49:12.352Z,4.77
2023-05-18T02:52:02.131Z,5.40
2023-05-18T02:54:50.831Z,5.73
2023-05-18T02:57:46.986Z,6.47
2023-05-18T03:00:39.396Z,5.50
2023-05-18T03:03:26.810Z,5.13
2023-05-18T03:06:14.184Z,5.37
2023-05-18T03:09:05.205Z,5.70
2023-05-18T03:11:56.779Z,6.03
2023-05-18T03:14:45.186Z,5.40
2023-05-18T03:17:33.744Z,5.63
2023-05-18T03:20:22.337Z,6.37
2023-05-18T03:23:10.193Z,5.73
2023-05-18T03:26:03.161Z,6.30
2023-05-18T03:28:51.955Z,5.67
2023-05-18T03:31:41.028Z,6.63
2023-05-18T03:34:29.702Z,6.57
2023-05-18T03:37:18.137Z,6.23
2023-05-18T03:40:11.069Z,6.43
2023-05-18T03:43:00.991Z,7.00
2023-05-18T03:45:48.732Z,6.60
2023-05-18T03:48:37.064Z,6.60
2023-05-18T03:51:24.541Z,6.30
2023-05-18T03:54:12.720Z,6.40
2023-05-18T03:57:00.163Z,6.00
2023-05-18T03:59:49.168Z,5.47
2023-05-18T04:02:37.543Z,6.67
2023-05-18T04:05:26.379Z,6.80
2023-05-18T04:08:15.005Z,6.93
2023-05-18T04:11:02.897Z,6.43
2023-05-18T04:13:51.324Z,7.40
2023-05-18T04:16:40.980Z,6.77
2023-05-18T04:19:28.445Z,7.73
2023-05-18T04:22:21.515Z,7.07
2023-05-18T04:25:11.579Z,7.00
2023-05-18T04:27:59.760Z,6.43
2023-05-18T04:30:47.572Z,7.17
2023-05-18T04:33:37.015Z,6.90
2023-05-18T04:36:25.656Z,6.73
2023-05-18T04:39:13.520Z,7.13
2023-05-18T04:42:01.761Z,6.57
2023-05-18T04:44:52.247Z,5.83
2023-05-18T04:47:40.165Z,6.57
2023-05-18T04:50:29.575Z,6.10
2023-05-18T04:53:18.104Z,5.80
2023-05-18T04:56:06.452Z,6.60
2023-05-18T04:58:54.284Z,5.90
2023-05-18T05:01:41.558Z,5.97
2023-05-18T05:04:29.361Z,5.50
2023-05-18T05:07:18.370Z,5.57
2023-05-18T05:10:07.955Z,5.50
2023-05-18T05:12:56.871Z,6.67
2023-05-18T05:15:44.804Z,5.67
2023-05-18T05:18:32.012Z,4.93
2023-05-18T05:21:19.262Z,4.73
2023-05-18T05:24:08.913Z,4.27
2023-05-18T05:26:57.253Z,3.90
2023-05-18T05:29:46.834Z,3.30
2023-05-18T05:32:35.890Z,3.58
2023-05-18T05:35:24.584Z,3.13
2023-05-18T05:38:12.363Z,3.45
2023-05-18T05:41:01.541Z,3.08
2023-05-18T05:43:48.712Z,3.08
2023-05-18T05:46:36.413Z,2.88
2023-05-18T05:49:25.508Z,3.17
2023-05-18T05:52:12.703Z,3.47
2023-05-18T05:55:01.385Z,2.90
2023-05-18T05:57:50.732Z,2.90
2023-05-18T06:00:38.956Z,3.30
2023-05-18T06:03:26.548Z,3.30
2023-05-18T06:06:15.647Z,3.85
2023-05-18T06:09:04.540Z,3.05
2023-05-18T06:11:53.440Z,3.47
2023-05-18T06:14:42.387Z,3.70
2023-05-18T06:17:31.214Z,3.20
2023-05-18T06:20:19.028Z,3.65
2023-05-18T06:23:06.449Z,3.47
2023-05-18T06:26:06.461Z,3.42
2023-05-18T06:28:54.160Z,3.65
2023-05-18T06:31:48.718Z,3.45
2023-05-18T06:34:45.818Z,3.67
2023-05-18T06:37:34.364Z,3.05
2023-05-18T06:40:21.786Z,3.40
2023-05-18T06:43:09.748Z,3.17
2023-05-18T06:46:07.878Z,3.22
2023-05-18T06:49:02.396Z,3.65
2023-05-18T06:51:49.692Z,4.43
2023-05-18T06:54:38.857Z,3.58
2023-05-18T06:57:26.589Z,3.10
2023-05-18T07:00:15.736Z,3.65
2023-05-18T07:03:03.739Z,2.97
2023-05-18T07:05:52.797Z,3.20
2023-05-18T07:08:40.687Z,3.80
2023-05-18T07:11:29.682Z,3.20
2023-05-18T07:14:17.205Z,3.10
2023-05-18T07:17:04.886Z,3.38
2023-05-18T07:19:52.054Z,4.05
2023-05-18T07:22:41.924Z,3.33
2023-05-18T07:25:29.562Z,3.28
2023-05-18T07:28:17.707Z,2.95
2023-05-18T07:31:06.178Z,2.40
2023-05-18T07:33:54.137Z,2.55
2023-05-18T07:36:43.001Z,2.65
2023-05-18T07:39:32.001Z,2.97
2023-05-18T07:42:19.221Z,2.60
2023-05-18T07:45:08.574Z,2.30
2023-05-18T07:47:55.855Z,3.88
2023-05-18T07:50:43.557Z,2.53
2023-05-18T07:53:31.183Z,2.40
2023-05-18T07:56:20.583Z,2.53
2023-05-18T07:59:07.860Z,3.17
2023-05-18T08:01:56.343Z,3.20
2023-05-18T08:04:43.500Z,2.78
2023-05-18T08:07:33.415Z,2.70
2023-05-18T08:10:20.589Z,2.25
2023-05-18T08:13:09.542Z,2.42
2023-05-18T08:16:10.538Z,2.80
2023-05-18T08:19:00.117Z,3.00
2023-05-18T08:21:47.241Z,2.92
2023-05-18T08:24:34.844Z,2.60
2023-05-18T08:27:22.013Z,2.85
2023-05-18T08:30:13.127Z,2.50
2023-05-18T08:33:00.607Z,2.50
2023-05-18T08:35:48.258Z,2.60
2023-05-18T08:38:35.487Z,2.72
2023-05-18T08:41:29.452Z,3.15
2023-05-18T08:44:21.052Z,3.15
2023-05-18T08:47:13.506Z,2.55
2023-05-18T08:50:02.989Z,2.88
2023-05-18T08:52:54.903Z,3.00
2023-05-18T08:55:43.995Z,3.47
2023-05-18T08:58:36.350Z,2.65
2023-05-18T09:01:28.418Z,2.70
2023-05-18T09:04:19.050Z,3.08
2023-05-18T09:07:09.460Z,2.92
2023-05-18T09:09:57.852Z,2.72
2023-05-18T09:12:47.488Z,2.75
2023-05-18T09:15:37.858Z,2.78
2023-05-18T09:18:28.172Z,2.60
2023-05-18T09:21:17.222Z,2.38
2023-05-18T09:24:06.300Z,3.53
2023-05-18T09:26:53.957Z,2.97
2023-05-18T09:29:52.585Z,2.90
2023-05-18T09:32:40.170Z,2.85
2023-05-18T09:35:28.926Z,2.85
2023-05-18T09:38:22.446Z,2.92
2023-05-18T09:41:11.159Z,3.05
2023-05-18T09:43:58.337Z,2.92
2023-05-18T09:46:45.539Z,3.00
2023-05-18T09:49:32.692Z,3.63
2023-05-18T09:52:20.554Z,2.97
2023-05-18T09:55:10.192Z,3.10
2023-05-18T09:57:57.658Z,3.45
2023-05-18T10:00:52.172Z,3.25
2023-05-18T10:03:39.547Z,3.03
2023-05-18T10:06:28.670Z,2.95
2023-05-18T10:09:17.093Z,3.00
2023-05-18T10:12:10.969Z,3.25
2023-05-18T10:14:58.563Z,3.30
2023-05-18T10:17:47.862Z,3.17
2023-05-18T10:20:35.919Z,3.30
2023-05-18T10:23:24.516Z,3.30
2023-05-18T10:26:13.950Z,2.85
2023-05-18T10:29:03.146Z,3.22
2023-05-18T10:31:51.647Z,3.72
2023-05-18T10:34:40.322Z,3.50
2023-05-18T10:37:30.851Z,2.80
2023-05-18T10:40:19.771Z,3.13
2023-05-18T10:43:08.113Z,2.78
2023-05-18T10:45:59.887Z,2.67
2023-05-18T10:48:51.342Z,3.28
2023-05-18T10:51:45.395Z,2.83
2023-05-18T10:54:33.485Z,2.85
2023-05-18T10:57:21.522Z,2.88
2023-05-18T11:00:10.585Z,3.17
2023-05-18T11:03:01.040Z,2.50
2023-05-18T11:06:02.923Z,3.20
2023-05-18T11:08:52.138Z,2.83
2023-05-18T11:11:52.982Z,3.20
2023-05-18T11:14:49.266Z,2.60
2023-05-18T11:17:37.102Z,2.90
2023-05-18T11:20:26.728Z,3.42
2023-05-18T11:23:18.630Z,2.53
2023-05-18T11:26:16.351Z,2.92
2023-05-18T11:29:17.224Z,2.63
2023-05-18T11:32:05.385Z,3.47
2023-05-18T11:34:54.390Z,2.88
2023-05-18T11:37:49.430Z,2.80
2023-05-18T11:40:58.688Z,2.80
2023-05-18T11:43:46.054Z,2.78
2023-05-18T11:46:34.551Z,2.67
2023-05-18T11:49:24.939Z,2.75
2023-05-18T11:52:20.453Z,2.20
2023-05-18T11:55:14.394Z,2.28
2023-05-18T11:58:02.295Z,2.40
2023-05-18T12:00:50.502Z,2.65
2023-05-18T12:03:40.395Z,3.20
2023-05-18T12:06:28.750Z,2.22
2023-05-18T12:09:16.679Z,2.70
2023-05-18T12:12:07.663Z,2.45
2023-05-18T12:14:57.879Z,2.55
2023-05-18T12:17:47.207Z,2.22
2023-05-18T12:20:35.658Z,2.60
2023-05-18T12:23:36.915Z,2.38
2023-05-18T12:26:26.455Z,2.53
2023-05-18T12:29:20.407Z,1.92
2023-05-18T12:32:10.035Z,2.20
2023-05-18T12:34:57.202Z,2.47
2023-05-18T12:37:46.391Z,2.30
2023-05-18T12:40:45.072Z,2.55
2023-05-18T12:43:34.512Z,2.00
2023-05-18T12:46:25.007Z,2.17
2023-05-18T12:49:12.383Z,2.10
2023-05-18T12:52:09.469Z,1.70
2023-05-18T12:55:01.351Z,2.13
2023-05-18T12:58:00.163Z,2.25
2023-05-18T13:00:49.014Z,2.17
2023-05-18T13:03:40.478Z,2.40
2023-05-18T13:06:28.253Z,2.40
2023-05-18T13:09:16.218Z,2.20
2023-05-18T13:12:07.933Z,1.80
2023-05-18T13:14:55.323Z,2.40
2023-05-18T13:17:57.180Z,2.00
2023-05-18T13:20:50.765Z,2.45
2023-05-18T13:23:39.121Z,2.65
2023-05-18T13:26:27.633Z,2.45
2023-05-18T13:29:14.792Z,4.78
2023-05-18T13:32:02.478Z,2.40
2023-05-18T13:34:49.586Z,2.17
2023-05-18T13:37:38.580Z,2.22
2023-05-18T13:40:26.268Z,3.25
2023-05-18T13:43:14.012Z,2.78
2023-05-18T13:46:02.012Z,2.28
2023-05-18T13:48:49.657Z,2.45
2023-05-18T13:51:36.763Z,3.25
2023-05-18T13:54:26.242Z,3.13
2023-05-18T13:57:13.415Z,2.60
2023-05-18T14:00:08.767Z,2.03
2023-05-18T14:02:59.144Z,2.40
2023-05-18T14:05:46.930Z,2.80
2023-05-18T14:08:34.188Z,2.22
2023-05-18T14:11:22.708Z,2.72
2023-05-18T14:14:09.904Z,2.08
2023-05-18T14:16:57.626Z,3.30
2023-05-18T14:19:44.758Z,2.50
2023-05-18T14:22:32.783Z,2.42
2023-05-18T14:25:20.092Z,2.03
2023-05-18T14:28:10.234Z,2.53
2023-05-18T14:30:57.480Z,2.17
2023-05-18T14:33:45.105Z,2.70
2023-05-18T14:36:32.412Z,2.80
2023-05-18T14:39:19.593Z,3.17
2023-05-18T14:42:07.316Z,2.50
2023-05-18T14:44:55.802Z,2.58
2023-05-18T14:47:43.186Z,2.97
2023-05-18T14:50:31.074Z,2.67
2023-05-18T14:53:18.331Z,2.50
2023-05-18T14:56:09.467Z,2.55
2023-05-18T14:58:56.709Z,2.47
2023-05-18T15:01:45.907Z,1.90
2023-05-18T15:04:33.048Z,1.95
2023-05-18T15:07:20.337Z,2.60
2023-05-18T15:10:09.131Z,2.67
2023-05-18T15:12:56.309Z,2.28
2023-05-18T15:15:44.014Z,2.30
2023-05-18T15:18:32.994Z,2.28
2023-05-18T15:21:20.605Z,2.47
2023-05-18T15:24:07.951Z,2.55
2023-05-18T15:26:56.924Z,2.67
2023-05-18T15:29:44.260Z,2.28
2023-05-18T15:32:32.382Z,2.00
2023-05-18T15:35:21.713Z,2.00
2023-05-18T15:38:08.943Z,1.83
2023-05-18T15:40:57.191Z,2.05
2023-05-18T15:43:47.081Z,2.28
2023-05-18T15:46:37.385Z,3.25
2023-05-18T15:49:25.865Z,2.22
2023-05-18T15:52:14.820Z,1.67
2023-05-18T15:55:02.213Z,1.80
2023-05-18T15:57:50.301Z,1.75
2023-05-18T16:00:37.514Z,1.80
2023-05-18T16:03:25.662Z,1.73
2023-05-18T16:06:13.493Z,2.03
2023-05-18T16:09:02.146Z,2.40
2023-05-18T16:11:50.289Z,2.60
2023-05-18T16:14:37.430Z,2.30
2023-05-18T16:17:25.690Z,2.20
2023-05-18T16:20:13.530Z,1.70
2023-05-18T16:23:01.618Z,2.37
2023-05-18T16:25:50.181Z,1.90
2023-05-18T16:28:38.281Z,1.73
2023-05-18T16:31:25.579Z,2.10
2023-05-18T16:34:13.733Z,2.03
2023-05-18T16:37:01.540Z,1.87
2023-05-18T16:39:48.677Z,1.63
2023-05-18T16:42:38.200Z,1.70
2023-05-18T16:45:27.236Z,1.92
2023-05-18T16:48:14.921Z,1.53
2023-05-18T16:51:07.578Z,1.77
2023-05-18T16:53:55.502Z,2.47
2023-05-18T16:56:43.622Z,1.70
2023-05-18T16:59:34.240Z,1.73
2023-05-18T17:02:24.621Z,2.00
2023-05-18T17:05:12.536Z,1.90
2023-05-18T17:08:00.402Z,1.73
2023-05-18T17:10:48.077Z,1.53
2023-05-18T17:13:35.512Z,1.60
2023-05-18T17:16:26.863Z,1.93
2023-05-18T17:19:14.328Z,1.90
2023-05-18T17:22:02.513Z,1.40
2023-05-18T17:24:49.656Z,1.83
2023-05-18T17:27:37.712Z,1.90
2023-05-18T17:30:25.165Z,1.87
2023-05-18T17:33:14.578Z,1.43
2023-05-18T17:36:01.974Z,1.90
2023-05-18T17:38:50.183Z,1.77
2023-05-18T17:41:37.463Z,1.50
2023-05-18T17:44:25.527Z,1.53
2023-05-18T17:47:13.148Z,1.70
2023-05-18T17:50:02.621Z,1.73
2023-05-18T17:52:50.256Z,1.60
2023-05-18T17:55:37.493Z,1.50
2023-05-18T17:58:25.594Z,1.90
2023-05-18T18:01:12.844Z,2.03
2023-05-18T18:04:01.245Z,1.80
2023-05-18T18:06:49.970Z,1.83
2023-05-18T18:09:38.386Z,1.90
2023-05-18T18:12:26.065Z,2.00
2023-05-18T18:15:13.251Z,2.30
2023-05-18T18:18:01.553Z,1.83
2023-05-18T18:20:48.749Z,1.90
2023-05-18T18:23:39.506Z,3.40
2023-05-18T18:26:26.660Z,2.90
2023-05-18T18:29:14.720Z,2.00
2023-05-18T18:32:01.889Z,2.07
2023-05-18T18:34:50.102Z,1.87
2023-05-18T18:37:37.240Z,1.97
2023-05-18T18:40:27.336Z,1.87
2023-05-18T18:43:14.543Z,1.97
2023-05-18T18:46:02.702Z,1.80
2023-05-18T18:48:49.838Z,1.60
2023-05-18T18:51:37.948Z,1.60
2023-05-18T18:54:26.191Z,1.80
2023-05-18T18:57:16.050Z,1.90
2023-05-18T19:00:05.530Z,2.33
2023-05-18T19:02:53.612Z,2.03
2023-05-18T19:05:40.792Z,2.30
2023-05-18T19:08:28.928Z,1.83
2023-05-18T19:11:16.230Z,2.23
2023-05-18T19:14:05.682Z,1.83
2023-05-18T19:16:52.915Z,1.90
2023-05-18T19:19:41.029Z,2.00
2023-05-18T19:22:28.251Z,2.10
2023-05-18T19:25:16.464Z,2.50
2023-05-18T19:28:03.826Z,2.33
2023-05-18T19:30:54.107Z,2.93
2023-05-18T19:33:41.745Z,1.80
2023-05-18T19:36:29.572Z,2.37
2023-05-18T19:39:17.444Z,2.93
2023-05-18T19:42:05.762Z,2.23
2023-05-18T19:44:53.844Z,1.90
2023-05-18T19:47:42.593Z,2.40
2023-05-18T19:50:30.769Z,2.10
2023-05-18T19:53:18.073Z,1.93
2023-05-18T19:56:06.545Z,2.00
2023-05-18T19:58:53.975Z,2.00
2023-05-18T20:01:42.139Z,1.70
2023-05-18T20:04:30.867Z,1.57
2023-05-18T20:07:20.892Z,2.00
2023-05-18T20:10:08.063Z,1.80
2023-05-18T20:12:55.220Z,2.00
2023-05-18T20:15:44.121Z,1.90
2023-05-18T20:18:37.683Z,2.03
2023-05-18T20:21:27.192Z,2.00
2023-05-18T20:24:14.879Z,3.07
2023-05-18T20:27:02.534Z,2.20
2023-05-18T20:29:49.668Z,2.30
2023-05-18T20:32:37.332Z,2.23
2023-05-18T20:35:24.837Z,2.13
2023-05-18T20:38:13.314Z,1.73
2023-05-18T20:41:01.593Z,1.90
2023-05-18T20:43:51.477Z,1.70
2023-05-18T20:46:42.448Z,2.20
2023-05-18T20:49:30.575Z,1.80
2023-05-18T20:52:17.759Z,1.90
2023-05-18T20:55:07.932Z,2.10
2023-05-18T20:57:55.059Z,1.90
2023-05-18T21:00:42.667Z,2.10
2023-05-18T21:03:30.404Z,1.87
2023-05-18T21:06:18.532Z,2.17
2023-05-18T21:09:06.356Z,2.00
2023-05-18T21:11:55.781Z,2.00
2023-05-18T21:14:42.924Z,2.23
2023-05-18T21:17:31.316Z,2.20
2023-05-18T21:20:18.481Z,2.50
2023-05-18T21:23:06.419Z,2.13
2023-05-18T21:25:53.871Z,2.20
2023-05-18T21:28:43.596Z,2.20
2023-05-18T21:31:30.874Z,2.10
2023-05-18T21:34:18.511Z,2.43
2023-05-18T21:37:05.841Z,2.33
2023-05-18T21:39:53.974Z,2.57
2023-05-18T21:42:45.042Z,2.50
2023-05-18T21:45:34.779Z,2.90
2023-05-18T21:48:21.866Z,2.50
2023-05-18T21:51:12.326Z,2.67
2023-05-18T21:54:01.224Z,2.90
2023-05-18T21:56:49.319Z,3.20
2023-05-18T21:59:36.950Z,3.13
2023-05-18T22:02:26.065Z,2.77
2023-05-18T22:05:13.747Z,2.90
2023-05-18T22:08:01.119Z,2.87
2023-05-18T22:10:48.746Z,3.30
2023-05-18T22:13:36.448Z,3.47
2023-05-18T22:16:23.651Z,3.40
2023-05-18T22:19:12.785Z,2.73
2023-05-18T22:22:01.407Z,3.60
2023-05-18T22:24:49.741Z,3.23
2023-05-18T22:27:39.105Z,3.70
2023-05-18T22:30:28.896Z,3.40
2023-05-18T22:33:16.855Z,3.13
2023-05-18T22:36:07.036Z,3.10
2023-05-18T22:38:54.268Z,3.60
2023-05-18T22:41:42.357Z,3.30
2023-05-18T22:44:29.472Z,3.20
2023-05-18T22:47:20.311Z,3.60
2023-05-18T22:50:08.864Z,3.60
2023-05-18T22:52:59.125Z,3.80
2023-05-18T22:55:46.317Z,3.90
2023-05-18T22:58:34.393Z,3.80
2023-05-18T23:01:21.576Z,3.53
2023-05-18T23:04:08.787Z,4.27
2023-05-18T23:06:56.963Z,3.50
2023-05-18T23:09:46.410Z,4.03
2023-05-18T23:12:33.682Z,3.83
2023-05-18T23:15:23.075Z,4.40
2023-05-18T23:18:10.806Z,4.20
2023-05-18T23:20:59.023Z,4.00
2023-05-18T23:23:46.283Z,3.77
2023-05-18T23:26:36.835Z,4.00
2023-05-18T23:29:24.547Z,3.70
2023-05-18T23:32:11.803Z,4.20
2023-05-18T23:35:00.463Z,3.50
2023-05-18T23:37:49.927Z,3.57
2023-05-18T23:40:38.368Z,4.33
2023-05-18T23:43:27.557Z,3.60
2023-05-18T23:46:17.566Z,3.77
2023-05-18T23:49:05.319Z,3.53
2023-05-18T23:51:53.881Z,3.50
2023-05-18T23:54:42.704Z,3.67
2023-05-18T23:57:31.452Z,4.17
